createdAt,value
2022-11-23T00:00:02.866Z,3.33
2022-11-23T00:02:29.198Z,3.30
2022-11-23T00:04:55.533Z,3.59
2022-11-23T00:07:21.888Z,3.37
2022-11-23T00:09:48.193Z,3.43
2022-11-23T00:12:14.489Z,3.45
2022-11-23T00:14:40.802Z,3.53
2022-11-23T00:17:07.097Z,3.73
2022-11-23T00:19:33.656Z,3.66
2022-11-23T00:22:00.181Z,3.75
2022-11-23T00:24:26.486Z,3.43
2022-11-23T00:26:52.769Z,3.55
2022-11-23T00:29:19.066Z,3.66
2022-11-23T00:31:45.409Z,3.55
2022-11-23T00:34:11.717Z,3.44
2022-11-23T00:36:38.007Z,3.61
2022-11-23T00:39:04.329Z,3.61
2022-11-23T00:41:30.637Z,3.53
2022-11-23T00:43:56.942Z,3.54
2022-11-23T00:46:27.187Z,3.56
2022-11-23T00:48:54.184Z,3.51
2022-11-23T00:51:24.485Z,3.50
2022-11-23T00:53:51.355Z,3.49
2022-11-23T00:56:18.314Z,3.46
2022-11-23T00:58:51.123Z,3.55
2022-11-23T01:01:18.061Z,3.52
2022-11-23T01:03:46.062Z,3.48
2022-11-23T01:06:13.470Z,3.48
2022-11-23T01:08:40.098Z,3.57
2022-11-23T01:11:07.813Z,3.60
2022-11-23T01:13:34.639Z,3.70
2022-11-23T01:16:01.494Z,3.66
2022-11-23T01:18:27.800Z,3.61
2022-11-23T01:20:54.125Z,3.43
2022-11-23T01:23:20.505Z,3.60
2022-11-23T01:25:46.909Z,3.73
2022-11-23T01:28:13.325Z,3.82
2022-11-23T01:30:39.608Z,3.78
2022-11-23T01:33:05.902Z,3.60
2022-11-23T01:35:32.266Z,3.50
2022-11-23T01:37:58.609Z,3.55
2022-11-23T01:40:24.964Z,3.45
2022-11-23T01:42:55.734Z,3.43
2022-11-23T01:45:31.054Z,3.36
2022-11-23T01:47:57.353Z,3.46
2022-11-23T01:50:23.636Z,3.43
2022-11-23T01:52:49.925Z,3.68
2022-11-23T01:55:16.222Z,3.46
2022-11-23T01:57:42.510Z,3.37
2022-11-23T02:00:09.187Z,3.48
2022-11-23T02:02:35.551Z,3.46
2022-11-23T02:05:01.935Z,3.49
2022-11-23T02:07:28.317Z,3.43
2022-11-23T02:09:54.635Z,3.54
2022-11-23T02:12:20.935Z,3.54
2022-11-23T02:14:47.242Z,3.51
2022-11-23T02:17:13.630Z,3.55
2022-11-23T02:19:49.037Z,3.56
2022-11-23T02:22:17.289Z,3.77
2022-11-23T02:24:46.141Z,3.86
2022-11-23T02:27:12.512Z,3.80
2022-11-23T02:29:38.817Z,3.84
2022-11-23T02:32:05.114Z,3.72
2022-11-23T02:34:31.501Z,3.75
2022-11-23T02:36:57.797Z,3.87
2022-11-23T02:39:26.354Z,3.71
2022-11-23T02:41:53.015Z,3.86
2022-11-23T02:44:33.810Z,4.13
2022-11-23T02:47:00.192Z,3.99
2022-11-23T02:49:26.580Z,3.97
2022-11-23T02:51:52.990Z,3.98
2022-11-23T02:54:19.285Z,3.83
2022-11-23T02:56:45.642Z,3.88
2022-11-23T02:59:11.984Z,3.99
2022-11-23T03:01:40.167Z,3.96
2022-11-23T03:04:06.844Z,4.01
2022-11-23T03:06:33.126Z,4.07
2022-11-23T03:08:59.437Z,4.00
2022-11-23T03:11:25.741Z,4.10
2022-11-23T03:13:52.054Z,4.07
2022-11-23T03:16:18.516Z,4.05
2022-11-23T03:18:44.856Z,3.88
2022-11-23T03:21:11.197Z,3.99
2022-11-23T03:23:37.483Z,3.94
2022-11-23T03:26:07.232Z,3.96
2022-11-23T03:28:36.126Z,3.96
2022-11-23T03:31:02.412Z,3.86
2022-11-23T03:33:28.783Z,3.87
2022-11-23T03:35:56.251Z,3.85
2022-11-23T03:38:22.556Z,3.81
2022-11-23T03:40:48.919Z,3.69
2022-11-23T03:43:15.359Z,3.60
2022-11-23T03:45:41.897Z,3.61
2022-11-23T03:48:08.190Z,3.64
2022-11-23T03:50:34.488Z,3.71
2022-11-23T03:53:00.776Z,3.81
2022-11-23T03:55:27.081Z,3.84
2022-11-23T03:57:59.538Z,3.88
2022-11-23T04:00:26.610Z,3.91
2022-11-23T04:02:52.917Z,3.95
2022-11-23T04:05:19.212Z,4.18
2022-11-23T04:07:48.959Z,3.94
2022-11-23T04:10:15.757Z,4.07
2022-11-23T04:12:42.064Z,4.31
2022-11-23T04:15:08.611Z,4.24
2022-11-23T04:17:34.904Z,4.20
2022-11-23T04:20:01.262Z,4.18
2022-11-23T04:22:27.629Z,4.19
2022-11-23T04:24:53.941Z,4.26
2022-11-23T04:27:20.233Z,4.37
2022-11-23T04:29:46.527Z,4.30
2022-11-23T04:32:12.954Z,4.44
2022-11-23T04:34:39.287Z,4.55
2022-11-23T04:37:09.045Z,4.56
2022-11-23T04:39:39.361Z,4.55
2022-11-23T04:42:05.657Z,4.55
2022-11-23T04:44:31.954Z,4.45
2022-11-23T04:46:58.258Z,4.55
2022-11-23T04:49:24.563Z,4.39
2022-11-23T04:51:50.866Z,4.58
2022-11-23T04:54:17.163Z,4.44
2022-11-23T04:56:43.488Z,4.48
2022-11-23T04:59:09.784Z,4.57
2022-11-23T05:01:36.117Z,4.71
2022-11-23T05:04:02.464Z,4.47
2022-11-23T05:06:28.916Z,4.55
2022-11-23T05:08:55.205Z,4.71
2022-11-23T05:11:21.583Z,4.56
2022-11-23T05:13:47.871Z,4.71
2022-11-23T05:16:14.179Z,4.67
2022-11-23T05:18:40.489Z,4.53
2022-11-23T05:21:06.897Z,4.56
2022-11-23T05:23:33.248Z,4.62
2022-11-23T05:25:59.537Z,4.43
2022-11-23T05:28:41.883Z,4.63
2022-11-23T05:31:08.417Z,4.58
2022-11-23T05:33:34.830Z,4.86
2022-11-23T05:36:01.250Z,4.66
2022-11-23T05:38:27.715Z,4.58
2022-11-23T05:40:54.009Z,4.73
2022-11-23T05:43:20.352Z,4.87
2022-11-23T05:45:46.641Z,4.81
2022-11-23T05:48:12.942Z,4.79
2022-11-23T05:50:39.275Z,4.90
2022-11-23T05:53:05.574Z,4.88
2022-11-23T05:55:32.517Z,4.89
2022-11-23T05:57:58.856Z,4.96
2022-11-23T06:00:25.131Z,4.79
2022-11-23T06:02:51.439Z,5.00
2022-11-23T06:05:17.741Z,5.14
2022-11-23T06:07:44.052Z,4.94
2022-11-23T06:10:10.834Z,4.85
2022-11-23T06:12:37.190Z,5.05
2022-11-23T06:15:03.573Z,5.00
2022-11-23T06:17:29.868Z,5.00
2022-11-23T06:19:56.391Z,4.92
2022-11-23T06:22:22.704Z,5.02
2022-11-23T06:24:48.988Z,4.89
2022-11-23T06:27:18.399Z,4.99
2022-11-23T06:29:44.951Z,5.10
2022-11-23T06:32:11.275Z,5.01
2022-11-23T06:34:37.642Z,5.20
2022-11-23T06:37:04.056Z,5.02
2022-11-23T06:39:30.489Z,5.10
2022-11-23T06:42:10.800Z,5.04
2022-11-23T06:44:43.276Z,5.25
2022-11-23T06:47:13.924Z,5.29
2022-11-23T06:49:42.871Z,5.36
2022-11-23T06:52:09.167Z,5.40
2022-11-23T06:54:35.448Z,5.31
2022-11-23T06:57:01.729Z,5.36
2022-11-23T06:59:28.047Z,5.28
2022-11-23T07:01:54.388Z,5.25
2022-11-23T07:04:20.749Z,5.27
2022-11-23T07:06:47.025Z,5.18
2022-11-23T07:09:13.370Z,5.28
2022-11-23T07:11:39.730Z,5.28
2022-11-23T07:14:06.024Z,5.28
2022-11-23T07:16:32.310Z,5.29
2022-11-23T07:18:58.641Z,5.29
2022-11-23T07:21:25.073Z,5.26
2022-11-23T07:23:51.423Z,5.36
2022-11-23T07:26:17.715Z,5.35
2022-11-23T07:28:44.270Z,5.61
2022-11-23T07:31:10.633Z,5.30
2022-11-23T07:33:36.933Z,5.39
2022-11-23T07:36:03.342Z,5.39
2022-11-23T07:38:30.012Z,5.65
2022-11-23T07:40:56.387Z,5.49
2022-11-23T07:43:22.693Z,5.40
2022-11-23T07:45:48.980Z,5.58
2022-11-23T07:48:16.495Z,5.58
2022-11-23T07:50:42.809Z,5.72
2022-11-23T07:53:09.799Z,5.65
2022-11-23T07:55:36.435Z,5.69
2022-11-23T07:58:02.830Z,5.92
2022-11-23T08:00:29.146Z,5.72
2022-11-23T08:03:27.414Z,5.82
2022-11-23T08:05:42.999Z,5.77
2022-11-23T08:08:09.351Z,5.57
2022-11-23T08:10:40.190Z,5.72
2022-11-23T08:13:09.865Z,5.79
2022-11-23T08:15:36.158Z,5.86
2022-11-23T08:18:03.153Z,5.73
2022-11-23T08:20:29.746Z,5.63
2022-11-23T08:22:56.105Z,5.63
2022-11-23T08:25:25.879Z,5.70
2022-11-23T08:27:59.170Z,5.68
2022-11-23T08:30:25.832Z,5.83
2022-11-23T08:32:52.173Z,5.67
2022-11-23T08:35:18.530Z,5.80
2022-11-23T08:37:44.833Z,6.02
2022-11-23T08:40:11.426Z,5.78
2022-11-23T08:42:37.711Z,5.90
2022-11-23T08:45:05.511Z,5.81
2022-11-23T08:47:32.380Z,5.84
2022-11-23T08:49:58.715Z,5.87
2022-11-23T08:52:25.627Z,5.92
2022-11-23T08:54:51.935Z,5.89
2022-11-23T08:57:18.237Z,5.98
2022-11-23T08:59:44.556Z,5.95
2022-11-23T09:02:12.594Z,6.04
2022-11-23T09:04:39.826Z,6.12
2022-11-23T09:07:06.263Z,5.91
2022-11-23T09:09:32.656Z,6.10
2022-11-23T09:11:58.992Z,6.07
2022-11-23T09:14:27.596Z,6.30
2022-11-23T09:16:54.192Z,6.13
2022-11-23T09:19:20.618Z,6.23
2022-11-23T09:21:47.012Z,6.33
2022-11-23T09:24:13.414Z,6.23
2022-11-23T09:26:39.975Z,6.32
2022-11-23T09:29:06.690Z,6.32
2022-11-23T09:31:33.027Z,6.19
2022-11-23T09:33:59.381Z,6.14
2022-11-23T09:36:26.186Z,6.13
2022-11-23T09:38:56.745Z,6.11
2022-11-23T09:41:23.658Z,6.07
2022-11-23T09:43:57.613Z,6.44
2022-11-23T09:46:35.649Z,6.24
2022-11-23T09:49:03.132Z,6.43
2022-11-23T09:51:29.423Z,6.34
2022-11-23T09:53:56.691Z,6.42
2022-11-23T09:56:23.936Z,6.50
2022-11-23T09:58:54.610Z,6.64
2022-11-23T10:01:21.312Z,6.59
2022-11-23T10:03:49.370Z,6.58
2022-11-23T10:06:26.174Z,6.64
2022-11-23T10:09:12.845Z,6.68
2022-11-23T10:11:43.402Z,6.75
2022-11-23T10:14:09.622Z,6.55
2022-11-23T10:16:42.163Z,6.74
2022-11-23T10:19:21.164Z,6.85
2022-11-23T10:22:06.465Z,6.73
2022-11-23T10:24:34.039Z,6.79
2022-11-23T10:27:00.772Z,6.91
2022-11-23T10:29:31.293Z,6.79
2022-11-23T10:31:57.734Z,6.91
2022-11-23T10:34:26.522Z,6.88
2022-11-23T10:36:52.920Z,6.92
2022-11-23T10:39:19.220Z,6.79
2022-11-23T10:41:46.453Z,7.01
2022-11-23T10:44:28.788Z,7.11
2022-11-23T10:46:55.107Z,7.03
2022-11-23T10:49:22.277Z,6.90
2022-11-23T10:52:05.572Z,7.14
2022-11-23T10:54:41.171Z,7.19
2022-11-23T10:57:26.247Z,7.20
2022-11-23T11:00:03.641Z,7.43
2022-11-23T11:02:30.748Z,7.37
2022-11-23T11:05:15.677Z,7.33
2022-11-23T11:07:42.047Z,7.29
2022-11-23T11:10:27.614Z,7.41
2022-11-23T11:12:53.912Z,7.46
2022-11-23T11:15:20.211Z,7.44
2022-11-23T11:17:46.544Z,7.47
2022-11-23T11:20:24.977Z,7.36
2022-11-23T11:22:51.329Z,7.46
2022-11-23T11:25:43.954Z,7.41
2022-11-23T11:28:24.838Z,7.28
2022-11-23T11:31:06.502Z,7.46
2022-11-23T11:33:38.122Z,7.46
2022-11-23T11:36:04.489Z,7.37
2022-11-23T11:38:32.546Z,7.55
2022-11-23T11:41:12.131Z,7.33
2022-11-23T11:43:40.243Z,7.63
2022-11-23T11:46:31.909Z,7.33
2022-11-23T11:49:18.512Z,7.41
2022-11-23T11:52:08.339Z,7.38
2022-11-23T11:54:53.563Z,7.77
2022-11-23T11:57:27.841Z,7.73
2022-11-23T11:59:57.563Z,7.55
2022-11-23T12:02:25.407Z,7.67
2022-11-23T12:05:00.268Z,7.61
2022-11-23T12:07:29.741Z,7.78
2022-11-23T12:09:57.670Z,7.67
2022-11-23T12:12:29.611Z,7.83
2022-11-23T12:14:56.270Z,7.86
2022-11-23T12:17:41.376Z,7.78
2022-11-23T12:20:13.778Z,7.98
2022-11-23T12:22:40.133Z,8.06
2022-11-23T12:25:14.167Z,7.88
2022-11-23T12:27:49.501Z,8.04
2022-11-23T12:30:16.023Z,8.21
2022-11-23T12:32:42.289Z,8.15
2022-11-23T12:35:23.613Z,8.11
2022-11-23T12:37:49.844Z,8.28
2022-11-23T12:40:23.130Z,8.21
2022-11-23T12:42:52.613Z,8.30
2022-11-23T12:45:25.245Z,8.34
2022-11-23T12:48:15.609Z,8.30
2022-11-23T12:50:41.835Z,8.24
2022-11-23T12:53:17.482Z,8.27
2022-11-23T12:55:47.760Z,8.37
2022-11-23T12:58:14.112Z,8.34
2022-11-23T13:00:45.689Z,8.40
2022-11-23T13:03:30.866Z,8.55
2022-11-23T13:06:04.414Z,8.38
2022-11-23T13:08:49.864Z,8.32
2022-11-23T13:11:34.988Z,8.60
2022-11-23T13:14:20.686Z,8.57
2022-11-23T13:17:04.853Z,8.68
2022-11-23T13:19:37.371Z,8.47
2022-11-23T13:22:05.260Z,8.56
2022-11-23T13:24:35.990Z,8.27
2022-11-23T13:27:14.741Z,8.40
2022-11-23T13:29:55.949Z,8.48
2022-11-23T13:32:42.895Z,8.49
2022-11-23T13:35:21.543Z,8.21
2022-11-23T13:37:56.970Z,8.40
2022-11-23T13:40:29.331Z,8.43
2022-11-23T13:43:14.650Z,8.44
2022-11-23T13:45:40.972Z,8.50
2022-11-23T13:48:13.285Z,8.59
2022-11-23T13:50:48.677Z,8.65
2022-11-23T13:53:19.203Z,8.61
2022-11-23T13:55:45.503Z,8.53
2022-11-23T13:58:24.128Z,8.48
2022-11-23T14:00:54.580Z,8.55
2022-11-23T14:03:39.707Z,8.54
2022-11-23T14:06:08.483Z,8.57
2022-11-23T14:08:34.991Z,8.69
2022-11-23T14:11:01.279Z,8.51
2022-11-23T14:13:32.472Z,8.58
2022-11-23T14:16:00.420Z,8.58
2022-11-23T14:18:38.952Z,8.39
2022-11-23T14:21:12.576Z,8.56
2022-11-23T14:23:44.113Z,8.54
2022-11-23T14:26:29.394Z,8.56
2022-11-23T14:29:04.945Z,8.48
2022-11-23T14:31:35.002Z,8.45
2022-11-23T14:34:20.347Z,8.62
2022-11-23T14:36:49.558Z,8.37
2022-11-23T14:39:36.313Z,8.24
2022-11-23T14:42:03.245Z,8.15
2022-11-23T14:44:34.155Z,8.17
2022-11-23T14:47:04.487Z,8.20
2022-11-23T14:49:30.831Z,8.15
2022-11-23T14:51:57.276Z,8.27
2022-11-23T14:54:23.636Z,8.36
2022-11-23T14:56:50.277Z,8.24
2022-11-23T14:59:16.505Z,8.15
2022-11-23T15:01:50.485Z,8.23
2022-11-23T15:04:25.463Z,8.38
2022-11-23T15:06:52.855Z,8.17
2022-11-23T15:09:34.629Z,8.08
2022-11-23T15:12:20.291Z,8.22
2022-11-23T15:14:49.062Z,8.19
2022-11-23T15:17:16.196Z,8.12
2022-11-23T15:19:42.968Z,8.18
2022-11-23T15:22:16.554Z,8.16
2022-11-23T15:24:42.872Z,8.10
2022-11-23T15:27:12.787Z,8.24
2022-11-23T15:29:39.806Z,8.30
2022-11-23T15:32:41.948Z,8.41
2022-11-23T15:35:10.722Z,8.30
2022-11-23T15:37:38.571Z,8.31
2022-11-23T15:40:06.664Z,8.28
2022-11-23T15:42:33.019Z,8.27
2022-11-23T15:44:59.322Z,8.40
2022-11-23T15:47:27.548Z,8.23
2022-11-23T15:49:56.765Z,8.28
2022-11-23T15:52:23.242Z,8.28
2022-11-23T15:54:49.643Z,8.19
2022-11-23T15:57:18.912Z,8.32
2022-11-23T15:59:49.267Z,8.17
2022-11-23T16:02:22.863Z,8.12
2022-11-23T16:04:49.328Z,8.19
2022-11-23T16:07:16.968Z,8.20
2022-11-23T16:09:52.616Z,8.17
2022-11-23T16:12:26.833Z,8.20
2022-11-23T16:14:53.953Z,8.28
2022-11-23T16:17:21.450Z,8.21
2022-11-23T16:19:48.567Z,8.24
2022-11-23T16:22:19.945Z,8.25
2022-11-23T16:24:47.207Z,8.10
2022-11-23T16:27:14.387Z,8.29
2022-11-23T16:29:40.706Z,8.43
2022-11-23T16:32:19.976Z,8.31
2022-11-23T16:34:46.339Z,8.12
2022-11-23T16:37:12.642Z,7.92
2022-11-23T16:39:38.953Z,8.14
2022-11-23T16:42:05.240Z,8.23
2022-11-23T16:44:35.205Z,8.14
2022-11-23T16:47:33.170Z,8.07
2022-11-23T16:49:59.631Z,7.87
2022-11-23T16:52:26.122Z,8.01
2022-11-23T16:54:55.329Z,8.04
2022-11-23T16:57:29.352Z,8.10
2022-11-23T16:59:56.085Z,8.18
2022-11-23T17:02:22.589Z,7.82
2022-11-23T17:04:49.091Z,8.09
2022-11-23T17:07:16.818Z,7.89
2022-11-23T17:09:43.221Z,7.86
2022-11-23T17:12:12.972Z,7.56
2022-11-23T17:14:39.624Z,7.80
2022-11-23T17:17:08.829Z,7.69
2022-11-23T17:19:35.583Z,7.68
2022-11-23T17:22:02.042Z,7.64
2022-11-23T17:24:28.450Z,7.55
2022-11-23T17:26:54.893Z,7.61
2022-11-23T17:29:21.473Z,7.63
2022-11-23T17:31:48.322Z,7.88
2022-11-23T17:34:15.128Z,7.87
2022-11-23T17:36:41.825Z,7.87
2022-11-23T17:39:09.179Z,7.91
2022-11-23T17:41:35.466Z,7.80
2022-11-23T17:44:01.834Z,7.91
2022-11-23T17:46:31.330Z,8.00
2022-11-23T17:48:58.360Z,7.80
2022-11-23T17:51:25.677Z,8.02
2022-11-23T17:53:52.171Z,7.82
2022-11-23T17:56:19.439Z,7.99
2022-11-23T17:58:45.976Z,7.95
2022-11-23T18:01:13.805Z,7.74
2022-11-23T18:03:40.592Z,7.88
2022-11-23T18:06:08.735Z,7.75
2022-11-23T18:08:35.267Z,7.77
2022-11-23T18:11:01.566Z,7.76
2022-11-23T18:13:28.084Z,7.69
2022-11-23T18:15:54.486Z,7.74
2022-11-23T18:18:20.967Z,7.73
2022-11-23T18:20:47.257Z,7.86
2022-11-23T18:23:13.638Z,7.69
2022-11-23T18:25:39.923Z,7.66
2022-11-23T18:28:06.253Z,7.73
2022-11-23T18:30:32.670Z,7.77
2022-11-23T18:32:59.053Z,7.70
2022-11-23T18:35:25.350Z,7.54
2022-11-23T18:37:51.739Z,7.60
2022-11-23T18:40:18.047Z,7.78
2022-11-23T18:42:44.410Z,7.82
2022-11-23T18:45:10.891Z,7.62
2022-11-23T18:47:37.583Z,7.73
2022-11-23T18:50:06.747Z,7.75
2022-11-23T18:52:33.247Z,7.88
2022-11-23T18:54:59.772Z,7.97
2022-11-23T18:57:26.061Z,7.85
2022-11-23T18:59:59.692Z,7.70
2022-11-23T19:02:26.365Z,7.81
2022-11-23T19:04:52.772Z,7.92
2022-11-23T19:07:25.097Z,7.91
2022-11-23T19:09:53.292Z,7.80
2022-11-23T19:12:19.582Z,7.80
2022-11-23T19:14:49.521Z,8.02
2022-11-23T19:17:16.086Z,7.85
2022-11-23T19:19:42.390Z,7.79
2022-11-23T19:22:08.871Z,7.82
2022-11-23T19:24:35.181Z,7.69
2022-11-23T19:27:01.498Z,7.85
2022-11-23T19:29:30.581Z,8.02
2022-11-23T19:31:56.885Z,7.85
2022-11-23T19:34:23.355Z,7.83
2022-11-23T19:36:49.689Z,7.67
2022-11-23T19:39:16.078Z,7.83
2022-11-23T19:41:42.665Z,7.86
2022-11-23T19:44:08.968Z,7.82
2022-11-23T19:46:35.290Z,7.81
2022-11-23T19:49:02.119Z,7.81
2022-11-23T19:51:28.530Z,7.88
2022-11-23T19:53:56.899Z,7.87
2022-11-23T19:56:23.996Z,7.76
2022-11-23T19:58:51.252Z,7.81
2022-11-23T20:01:18.349Z,7.61
2022-11-23T20:03:48.392Z,7.62
2022-11-23T20:06:24.001Z,7.68
2022-11-23T20:08:57.845Z,7.44
2022-11-23T20:11:24.613Z,7.44
2022-11-23T20:13:51.225Z,7.29
2022-11-23T20:16:18.546Z,7.26
2022-11-23T20:18:45.425Z,7.15
2022-11-23T20:21:12.501Z,6.95
2022-11-23T20:23:39.205Z,7.05
2022-11-23T20:26:05.637Z,6.99
2022-11-23T20:28:32.076Z,6.89
2022-11-23T20:31:07.417Z,6.97
2022-11-23T20:33:33.911Z,6.96
2022-11-23T20:36:19.392Z,6.92
2022-11-23T20:38:45.918Z,6.87
2022-11-23T20:41:13.337Z,6.93
2022-11-23T20:43:39.990Z,6.81
2022-11-23T20:46:06.539Z,6.88
2022-11-23T20:48:39.746Z,6.71
2022-11-23T20:51:17.453Z,6.68
2022-11-23T20:53:45.653Z,6.60
2022-11-23T20:56:17.602Z,6.68
2022-11-23T20:58:53.058Z,6.64
2022-11-23T21:01:20.028Z,6.57
2022-11-23T21:03:51.551Z,6.49
2022-11-23T21:06:18.185Z,6.50
2022-11-23T21:08:45.418Z,6.58
2022-11-23T21:11:34.005Z,6.58
2022-11-23T21:14:06.279Z,6.57
2022-11-23T21:16:35.893Z,6.40
2022-11-23T21:19:02.473Z,6.52
2022-11-23T21:21:28.940Z,6.29
2022-11-23T21:23:55.230Z,6.32
2022-11-23T21:26:21.605Z,6.37
2022-11-23T21:28:48.108Z,6.34
2022-11-23T21:31:17.409Z,6.21
2022-11-23T21:33:43.796Z,6.18
2022-11-23T21:36:11.748Z,6.00
2022-11-23T21:38:38.304Z,6.03
2022-11-23T21:41:05.233Z,6.11
2022-11-23T21:43:31.741Z,6.04
2022-11-23T21:45:59.059Z,6.05
2022-11-23T21:48:25.501Z,6.17
2022-11-23T21:50:58.504Z,6.17
2022-11-23T21:53:24.788Z,6.36
2022-11-23T21:55:51.084Z,6.08
2022-11-23T21:58:17.397Z,6.32
2022-11-23T22:00:43.747Z,6.20
2022-11-23T22:03:11.669Z,6.01
2022-11-23T22:05:38.047Z,6.15
2022-11-23T22:08:28.114Z,6.26
2022-11-23T22:10:50.773Z,6.14
2022-11-23T22:13:17.178Z,6.09
2022-11-23T22:15:43.486Z,6.13
2022-11-23T22:18:09.967Z,6.24
2022-11-23T22:20:36.267Z,6.19
2022-11-23T22:23:02.560Z,6.32
2022-11-23T22:25:28.945Z,6.22
2022-11-23T22:27:55.353Z,6.36
2022-11-23T22:30:21.650Z,6.45
2022-11-23T22:32:50.776Z,6.50
2022-11-23T22:35:17.076Z,6.50
2022-11-23T22:37:45.397Z,6.52
2022-11-23T22:40:12.016Z,6.44
2022-11-23T22:42:38.325Z,6.48
2022-11-23T22:45:04.674Z,6.51
2022-11-23T22:47:31.004Z,6.51
2022-11-23T22:49:57.308Z,6.41
2022-11-23T22:52:23.614Z,6.28
2022-11-23T22:54:49.913Z,6.49
2022-11-23T22:57:16.213Z,6.22
2022-11-23T22:59:42.492Z,6.31
2022-11-23T23:02:08.913Z,6.42
2022-11-23T23:04:35.587Z,6.34
2022-11-23T23:07:02.173Z,6.30
2022-11-23T23:09:28.535Z,6.27
2022-11-23T23:11:54.854Z,6.23
2022-11-23T23:14:21.158Z,6.22
2022-11-23T23:16:47.477Z,6.47
2022-11-23T23:19:13.790Z,6.41
2022-11-23T23:21:40.699Z,6.36
2022-11-23T23:24:07.087Z,6.54
2022-11-23T23:26:33.477Z,6.51
2022-11-23T23:29:00.275Z,6.51
2022-11-23T23:31:27.181Z,6.51
2022-11-23T23:33:53.661Z,6.52
2022-11-23T23:36:20.883Z,6.41
2022-11-23T23:38:47.419Z,6.53
2022-11-23T23:41:13.995Z,6.60
2022-11-23T23:43:40.454Z,6.48
2022-11-23T23:46:08.160Z,6.50
2022-11-23T23:48:35.959Z,6.53
2022-11-23T23:51:21.330Z,6.51
2022-11-23T23:53:47.997Z,6.57
2022-11-23T23:56:15.236Z,6.56
2022-11-23T23:58:41.547Z,6.60
